sensor_id;sensor_type;location;lat;lon;timestamp;pressure;altitude;pressure_sealevel;temperature;humidity
40730;BME280;26418;50.070;8.436;2023-04-07T00:01:19;100028.72;;;6.89;97.79
40730;BME280;26418;50.070;8.436;2023-04-07T00:03:45;100025.47;;;6.92;97.71
40730;BME280;26418;50.070;8.436;2023-04-07T00:06:11;100009.13;;;6.84;98.03
40730;BME280;26418;50.070;8.436;2023-04-07T00:08:36;100011.78;;;6.89;98.21
40730;BME280;26418;50.070;8.436;2023-04-07T00:11:02;100008.56;;;6.87;98.36
40730;BME280;26418;50.070;8.436;2023-04-07T00:13:27;100002.94;;;6.83;98.48
40730;BME280;26418;50.070;8.436;2023-04-07T00:15:52;100001.34;;;6.82;98.74
40730;BME280;26418;50.070;8.436;2023-04-07T00:18:18;99992.72;;;6.80;98.82
40730;BME280;26418;50.070;8.436;2023-04-07T00:20:43;99988.44;;;6.74;99.06
40730;BME280;26418;50.070;8.436;2023-04-07T00:23:08;99978.78;;;6.73;99.05
40730;BME280;26418;50.070;8.436;2023-04-07T00:25:34;99984.13;;;6.78;99.10
40730;BME280;26418;50.070;8.436;2023-04-07T00:27:59;99976.88;;;6.73;99.13
40730;BME280;26418;50.070;8.436;2023-04-07T00:30:25;99977.41;;;6.75;99.29
40730;BME280;26418;50.070;8.436;2023-04-07T00:32:50;99973.94;;;6.70;99.39
40730;BME280;26418;50.070;8.436;2023-04-07T00:35:16;99971.50;;;6.73;99.70
40730;BME280;26418;50.070;8.436;2023-04-07T00:37:42;99961.56;;;6.74;99.85
40730;BME280;26418;50.070;8.436;2023-04-07T00:40:07;99976.84;;;6.84;99.92
40730;BME280;26418;50.070;8.436;2023-04-07T00:42:33;99976.31;;;6.87;100.00
40730;BME280;26418;50.070;8.436;2023-04-07T00:44:59;99975.50;;;6.91;100.00
40730;BME280;26418;50.070;8.436;2023-04-07T00:47:24;99970.13;;;6.91;99.79
40730;BME280;26418;50.070;8.436;2023-04-07T00:49:50;99958.81;;;6.89;99.91
40730;BME280;26418;50.070;8.436;2023-04-07T00:52:16;99959.38;;;6.86;99.67
40730;BME280;26418;50.070;8.436;2023-04-07T00:54:41;99967.44;;;6.91;99.77
40730;BME280;26418;50.070;8.436;2023-04-07T00:57:08;99961.22;;;6.91;99.89
40730;BME280;26418;50.070;8.436;2023-04-07T00:59:34;99955.56;;;6.92;99.77
40730;BME280;26418;50.070;8.436;2023-04-07T01:02:15;99948.03;;;6.95;100.00
40730;BME280;26418;50.070;8.436;2023-04-07T01:04:53;99946.97;;;6.96;99.84
40730;BME280;26418;50.070;8.436;2023-04-07T01:10:10;99937.28;;;6.95;99.69
40730;BME280;26418;50.070;8.436;2023-04-07T01:15:29;99942.41;;;6.96;99.59
40730;BME280;26418;50.070;8.436;2023-04-07T01:18:00;99928.97;;;6.91;99.53
40730;BME280;26418;50.070;8.436;2023-04-07T01:20:31;99930.84;;;6.96;99.29
40730;BME280;26418;50.070;8.436;2023-04-07T01:23:02;99927.59;;;6.93;99.15
40730;BME280;26418;50.070;8.436;2023-04-07T01:30:56;99926.00;;;6.92;99.06
40730;BME280;26418;50.070;8.436;2023-04-07T01:33:23;99926.28;;;6.91;99.08
40730;BME280;26418;50.070;8.436;2023-04-07T01:35:49;99919.28;;;6.90;99.24
40730;BME280;26418;50.070;8.436;2023-04-07T01:38:16;99919.84;;;6.92;99.41
40730;BME280;26418;50.070;8.436;2023-04-07T01:40:42;99917.19;;;6.87;99.16
40730;BME280;26418;50.070;8.436;2023-04-07T01:43:08;99925.22;;;6.92;99.09
40730;BME280;26418;50.070;8.436;2023-04-07T01:45:35;99925.22;;;6.92;98.78
40730;BME280;26418;50.070;8.436;2023-04-07T01:48:04;99916.34;;;6.91;98.92
40730;BME280;26418;50.070;8.436;2023-04-07T01:50:30;99911.75;;;6.92;98.94
40730;BME280;26418;50.070;8.436;2023-04-07T01:52:55;99904.81;;;6.86;98.97
40730;BME280;26418;50.070;8.436;2023-04-07T01:55:21;99907.47;;;6.91;99.00
40730;BME280;26418;50.070;8.436;2023-04-07T01:57:47;99907.19;;;6.92;98.97
40730;BME280;26418;50.070;8.436;2023-04-07T02:00:13;99907.47;;;6.91;99.00
40730;BME280;26418;50.070;8.436;2023-04-07T02:02:40;99905.84;;;6.90;98.92
40730;BME280;26418;50.070;8.436;2023-04-07T02:05:11;99905.06;;;6.89;98.98
40730;BME280;26418;50.070;8.436;2023-04-07T02:07:41;99891.91;;;6.83;98.88
40730;BME280;26418;50.070;8.436;2023-04-07T02:10:12;99900.78;;;6.83;98.92
40730;BME280;26418;50.070;8.436;2023-04-07T02:12:39;99896.50;;;6.82;99.28
40730;BME280;26418;50.070;8.436;2023-04-07T02:15:09;99897.56;;;6.81;99.46
40730;BME280;26418;50.070;8.436;2023-04-07T02:17:38;99905.34;;;6.83;99.46
40730;BME280;26418;50.070;8.436;2023-04-07T02:20:08;99893.81;;;6.82;99.61
40730;BME280;26418;50.070;8.436;2023-04-07T02:22:37;99888.16;;;6.84;99.52
40730;BME280;26418;50.070;8.436;2023-04-07T02:25:28;99881.44;;;6.76;99.57
40730;BME280;26418;50.070;8.436;2023-04-07T02:27:55;99886.25;;;6.84;99.48
40730;BME280;26418;50.070;8.436;2023-04-07T02:30:21;99893.81;;;6.82;99.52
40730;BME280;26418;50.070;8.436;2023-04-07T02:32:46;99871.56;;;6.71;99.58
40730;BME280;26418;50.070;8.436;2023-04-07T02:35:12;99889.78;;;6.80;99.59
40730;BME280;26418;50.070;8.436;2023-04-07T02:37:38;99883.59;;;6.79;99.65
40730;BME280;26418;50.070;8.436;2023-04-07T02:40:04;99884.13;;;6.81;99.74
40730;BME280;26418;50.070;8.436;2023-04-07T02:42:30;99873.66;;;6.80;99.76
40730;BME280;26418;50.070;8.436;2023-04-07T02:44:55;99888.94;;;6.84;99.80
40730;BME280;26418;50.070;8.436;2023-04-07T02:47:21;99880.09;;;6.84;99.64
40730;BME280;26418;50.070;8.436;2023-04-07T02:49:46;99888.16;;;6.84;99.37
40730;BME280;26418;50.070;8.436;2023-04-07T02:52:12;99883.06;;;6.82;99.93
40730;BME280;26418;50.070;8.436;2023-04-07T02:54:37;99878.47;;;6.83;100.00
40730;BME280;26418;50.070;8.436;2023-04-07T02:57:02;99873.66;;;6.80;100.00
40730;BME280;26418;50.070;8.436;2023-04-07T02:59:28;99865.84;;;6.78;100.00
40730;BME280;26418;50.070;8.436;2023-04-07T03:01:53;99882.72;;;6.89;100.00
40730;BME280;26418;50.070;8.436;2023-04-07T03:04:18;99872.56;;;6.86;100.00
40730;BME280;26418;50.070;8.436;2023-04-07T03:06:44;99873.88;;;6.88;100.00
40730;BME280;26418;50.070;8.436;2023-04-07T03:09:09;99867.19;;;6.86;100.00
40730;BME280;26418;50.070;8.436;2023-04-07T03:11:35;99865.03;;;6.88;99.71
40730;BME280;26418;50.070;8.436;2023-04-07T03:14:00;99864.75;;;6.84;99.55
40730;BME280;26418;50.070;8.436;2023-04-07T03:16:26;99869.31;;;6.84;99.44
40730;BME280;26418;50.070;8.436;2023-04-07T03:18:51;99870.16;;;6.79;99.42
40730;BME280;26418;50.070;8.436;2023-04-07T03:21:16;99875.56;;;6.74;100.00
40730;BME280;26418;50.070;8.436;2023-04-07T03:23:42;99866.97;;;6.72;100.00
40730;BME280;26418;50.070;8.436;2023-04-07T03:26:07;99863.19;;;6.73;100.00
40730;BME280;26418;50.070;8.436;2023-04-07T03:28:32;99870.19;;;6.74;100.00
40730;BME280;26418;50.070;8.436;2023-04-07T03:30:58;99865.31;;;6.76;100.00
40730;BME280;26418;50.070;8.436;2023-04-07T03:33:23;99847.09;;;6.68;100.00
40730;BME280;26418;50.070;8.436;2023-04-07T03:35:48;99846.81;;;6.69;100.00
40730;BME280;26418;50.070;8.436;2023-04-07T03:38:14;99856.75;;;6.74;100.00
40730;BME280;26418;50.070;8.436;2023-04-07T03:40:39;99868.53;;;6.78;100.00
40730;BME280;26418;50.070;8.436;2023-04-07T03:43:05;99860.50;;;6.73;100.00
40730;BME280;26418;50.070;8.436;2023-04-07T03:45:36;99864.28;;;6.72;100.00
40730;BME280;26418;50.070;8.436;2023-04-07T03:48:05;99854.88;;;6.69;100.00
40730;BME280;26418;50.070;8.436;2023-04-07T03:50:30;99856.75;;;6.69;100.00
40730;BME280;26418;50.070;8.436;2023-04-07T03:52:55;99854.88;;;6.69;100.00
40730;BME280;26418;50.070;8.436;2023-04-07T03:55:21;99849.22;;;6.71;100.00
40730;BME280;26418;50.070;8.436;2023-04-07T03:57:46;99855.13;;;6.68;100.00
40730;BME280;26418;50.070;8.436;2023-04-07T04:00:12;99855.69;;;6.70;100.00
40730;BME280;26418;50.070;8.436;2023-04-07T04:02:38;99855.13;;;6.68;100.00
40730;BME280;26418;50.070;8.436;2023-04-07T04:05:03;99856.22;;;6.72;100.00
40730;BME280;26418;50.070;8.436;2023-04-07T04:07:29;99858.31;;;6.80;100.00
40730;BME280;26418;50.070;8.436;2023-04-07T04:09:54;99855.34;;;6.87;100.00
40730;BME280;26418;50.070;8.436;2023-04-07T04:12:20;99863.13;;;6.88;100.00
40730;BME280;26418;50.070;8.436;2023-04-07T04:14:45;99847.28;;;6.82;100.00
40730;BME280;26418;50.070;8.436;2023-04-07T04:17:10;99857.22;;;6.86;100.00
40730;BME280;26418;50.070;8.436;2023-04-07T04:19:36;99851.88;;;6.81;100.00
40730;BME280;26418;50.070;8.436;2023-04-07T04:22:01;99859.38;;;6.84;100.00
40730;BME280;26418;50.070;8.436;2023-04-07T04:24:26;99852.41;;;6.83;100.00
40730;BME280;26418;50.070;8.436;2023-04-07T04:26:52;99856.16;;;6.82;100.00
40730;BME280;26418;50.070;8.436;2023-04-07T04:29:17;99857.78;;;6.83;100.00
40730;BME280;26418;50.070;8.436;2023-04-07T04:31:42;99850.78;;;6.82;100.00
40730;BME280;26418;50.070;8.436;2023-04-07T04:34:08;99845.72;;;6.75;100.00
40730;BME280;26418;50.070;8.436;2023-04-07T04:36:33;99851.06;;;6.81;100.00
40730;BME280;26418;50.070;8.436;2023-04-07T04:38:58;99847.28;;;6.82;100.00
40730;BME280;26418;50.070;8.436;2023-04-07T04:41:23;99848.09;;;6.82;100.00
40730;BME280;26418;50.070;8.436;2023-04-07T04:43:49;99851.88;;;6.81;100.00
40730;BME280;26418;50.070;8.436;2023-04-07T04:46:16;99851.34;;;6.79;100.00
40730;BME280;26418;50.070;8.436;2023-04-07T04:48:41;99845.72;;;6.75;100.00
40730;BME280;26418;50.070;8.436;2023-04-07T04:51:06;99862.13;;;6.74;100.00
40730;BME280;26418;50.070;8.436;2023-04-07T04:53:32;99859.44;;;6.69;100.00
40730;BME280;26418;50.070;8.436;2023-04-07T04:55:57;99854.09;;;6.64;100.00
40730;BME280;26418;50.070;8.436;2023-04-07T04:58:22;99866.19;;;6.66;100.00
40730;BME280;26418;50.070;8.436;2023-04-07T05:00:48;99846.56;;;6.60;100.00
40730;BME280;26418;50.070;8.436;2023-04-07T05:03:13;99868.03;;;6.71;100.00
40730;BME280;26418;50.070;8.436;2023-04-07T05:05:38;99861.06;;;6.70;100.00
40730;BME280;26418;50.070;8.436;2023-04-07T05:08:04;99872.34;;;6.72;100.00
40730;BME280;26418;50.070;8.436;2023-04-07T05:10:30;99866.44;;;6.70;100.00
40730;BME280;26418;50.070;8.436;2023-04-07T05:12:55;99871.28;;;6.68;100.00
40730;BME280;26418;50.070;8.436;2023-04-07T05:15:21;99874.53;;;6.65;100.00
40730;BME280;26418;50.070;8.436;2023-04-07T05:17:46;99872.38;;;6.67;100.00
40730;BME280;26418;50.070;8.436;2023-04-07T05:20:15;99861.09;;;6.65;100.00
40730;BME280;26418;50.070;8.436;2023-04-07T05:22:41;99860.56;;;6.63;100.00
40730;BME280;26418;50.070;8.436;2023-04-07T05:25:07;99869.13;;;6.75;100.00
40730;BME280;26418;50.070;8.436;2023-04-07T05:27:32;99864.53;;;6.75;100.00
40730;BME280;26418;50.070;8.436;2023-04-07T05:29:57;99862.38;;;6.72;100.00
40730;BME280;26418;50.070;8.436;2023-04-07T05:32:23;99863.16;;;6.78;100.00
40730;BME280;26418;50.070;8.436;2023-04-07T05:34:48;99863.69;;;6.80;100.00
40730;BME280;26418;50.070;8.436;2023-04-07T05:37:14;99861.81;;;6.81;100.00
40730;BME280;26418;50.070;8.436;2023-04-07T05:39:39;99867.97;;;6.86;100.00
40730;BME280;26418;50.070;8.436;2023-04-07T05:42:05;99863.16;;;6.83;100.00
40730;BME280;26418;50.070;8.436;2023-04-07T05:44:30;99863.41;;;6.82;100.00
40730;BME280;26418;50.070;8.436;2023-04-07T05:46:55;99856.72;;;6.79;100.00
40730;BME280;26418;50.070;8.436;2023-04-07T05:49:21;99861.81;;;6.81;100.00
40730;BME280;26418;50.070;8.436;2023-04-07T05:51:46;99847.88;;;6.73;100.00
40730;BME280;26418;50.070;8.436;2023-04-07T05:54:11;99864.75;;;6.84;100.00
40730;BME280;26418;50.070;8.436;2023-04-07T05:56:37;99858.56;;;6.84;100.00
40730;BME280;26418;50.070;8.436;2023-04-07T05:59:03;99870.09;;;6.89;100.00
40730;BME280;26418;50.070;8.436;2023-04-07T06:01:28;99866.34;;;6.90;100.00
40730;BME280;26418;50.070;8.436;2023-04-07T06:03:53;99868.19;;;6.95;100.00
40730;BME280;26418;50.070;8.436;2023-04-07T06:06:19;99866.84;;;6.98;100.00
40730;BME280;26418;50.070;8.436;2023-04-07T06:08:45;99863.34;;;6.97;100.00
40730;BME280;26418;50.070;8.436;2023-04-07T06:11:11;99863.06;;;6.99;100.00
40730;BME280;26418;50.070;8.436;2023-04-07T06:13:36;99867.38;;;7.00;100.00
40730;BME280;26418;50.070;8.436;2023-04-07T06:16:02;99875.69;;;7.03;100.00
40730;BME280;26418;50.070;8.436;2023-04-07T06:18:27;99870.03;;;7.05;100.00
40730;BME280;26418;50.070;8.436;2023-04-07T06:20:52;99874.84;;;7.08;100.00
40730;BME280;26418;50.070;8.436;2023-04-07T06:23:18;99876.47;;;7.09;100.00
40730;BME280;26418;50.070;8.436;2023-04-07T06:25:43;99872.66;;;7.10;100.00
40730;BME280;26418;50.070;8.436;2023-04-07T06:28:09;99865.13;;;7.12;100.00
40730;BME280;26418;50.070;8.436;2023-04-07T06:30:34;99869.97;;;7.15;100.00
40730;BME280;26418;50.070;8.436;2023-04-07T06:33:00;99866.19;;;7.16;100.00
40730;BME280;26418;50.070;8.436;2023-04-07T06:35:25;99872.91;;;7.19;100.00
40730;BME280;26418;50.070;8.436;2023-04-07T06:37:51;99872.63;;;7.20;100.00
40730;BME280;26418;50.070;8.436;2023-04-07T06:40:17;99865.13;;;7.17;100.00
40730;BME280;26418;50.070;8.436;2023-04-07T06:42:42;99876.63;;;7.23;100.00
40730;BME280;26418;50.070;8.436;2023-04-07T06:45:08;99868.84;;;7.21;100.00
40730;BME280;26418;50.070;8.436;2023-04-07T06:47:34;99881.47;;;7.26;100.00
40730;BME280;26418;50.070;8.436;2023-04-07T06:49:59;99879.31;;;7.23;100.00
40730;BME280;26418;50.070;8.436;2023-04-07T06:52:24;99878.25;;;7.24;100.00
40730;BME280;26418;50.070;8.436;2023-04-07T06:54:50;99882.25;;;7.27;100.00
40730;BME280;26418;50.070;8.436;2023-04-07T06:57:15;99878.47;;;7.28;100.00
40730;BME280;26418;50.070;8.436;2023-04-07T06:59:41;99881.41;;;7.31;100.00
40730;BME280;26418;50.070;8.436;2023-04-07T07:02:06;99868.03;;;7.61;100.00
40730;BME280;26418;50.070;8.436;2023-04-07T07:04:33;99874.00;;;8.16;100.00
40730;BME280;26418;50.070;8.436;2023-04-07T07:06:58;99878.84;;;8.68;100.00
40730;BME280;26418;50.070;8.436;2023-04-07T07:09:24;99870.94;;;9.15;98.08
40730;BME280;26418;50.070;8.436;2023-04-07T07:11:50;99868.00;;;9.50;94.07
40730;BME280;26418;50.070;8.436;2023-04-07T07:14:16;99876.63;;;9.85;90.53
40730;BME280;26418;50.070;8.436;2023-04-07T07:16:41;99870.97;;;10.14;87.46
40730;BME280;26418;50.070;8.436;2023-04-07T07:19:07;99872.41;;;10.40;86.33
40730;BME280;26418;50.070;8.436;2023-04-07T07:21:33;99872.81;;;10.47;84.84
40730;BME280;26418;50.070;8.436;2023-04-07T07:23:58;99873.91;;;10.46;83.80
40730;BME280;26418;50.070;8.436;2023-04-07T07:26:24;99873.81;;;10.37;83.00
40730;BME280;26418;50.070;8.436;2023-04-07T07:28:50;99874.66;;;10.18;82.79
40730;BME280;26418;50.070;8.436;2023-04-07T07:31:16;99884.97;;;10.02;83.11
40730;BME280;26418;50.070;8.436;2023-04-07T07:33:41;99881.41;;;9.88;83.68
40730;BME280;26418;50.070;8.436;2023-04-07T07:36:09;99891.06;;;9.75;84.26
40730;BME280;26418;50.070;8.436;2023-04-07T07:38:35;99874.84;;;9.61;84.69
40730;BME280;26418;50.070;8.436;2023-04-07T07:41:01;99891.41;;;9.54;85.17
40730;BME280;26418;50.070;8.436;2023-04-07T07:43:26;99888.34;;;9.42;85.31
40730;BME280;26418;50.070;8.436;2023-04-07T07:45:51;99890.50;;;9.26;85.98
40730;BME280;26418;50.070;8.436;2023-04-07T07:48:17;99897.69;;;9.11;85.86
40730;BME280;26418;50.070;8.436;2023-04-07T07:50:42;99898.41;;;8.98;86.78
40730;BME280;26418;50.070;8.436;2023-04-07T07:53:09;99888.69;;;8.78;87.35
40730;BME280;26418;50.070;8.436;2023-04-07T07:55:35;99900.34;;;8.73;88.15
40730;BME280;26418;50.070;8.436;2023-04-07T07:58:00;99905.28;;;8.66;88.71
40730;BME280;26418;50.070;8.436;2023-04-07T08:00:25;99901.31;;;8.58;89.31
40730;BME280;26418;50.070;8.436;2023-04-07T08:02:51;99893.91;;;8.45;89.77
40730;BME280;26418;50.070;8.436;2023-04-07T08:05:16;99899.00;;;8.46;90.31
40730;BME280;26418;50.070;8.436;2023-04-07T08:07:42;99906.28;;;8.46;90.52
40730;BME280;26418;50.070;8.436;2023-04-07T08:10:08;99906.28;;;8.46;91.04
40730;BME280;26418;50.070;8.436;2023-04-07T08:12:33;99909.00;;;8.46;91.21
40730;BME280;26418;50.070;8.436;2023-04-07T08:14:59;99900.91;;;8.46;91.87
40730;BME280;26418;50.070;8.436;2023-04-07T08:17:24;99909.19;;;8.55;91.97
40730;BME280;26418;50.070;8.436;2023-04-07T08:19:50;99916.06;;;8.66;91.33
40730;BME280;26418;50.070;8.436;2023-04-07T08:22:15;99906.94;;;8.62;91.05
40730;BME280;26418;50.070;8.436;2023-04-07T08:24:40;99907.88;;;8.76;90.63
40730;BME280;26418;50.070;8.436;2023-04-07T08:27:06;99908.38;;;8.78;90.64
40730;BME280;26418;50.070;8.436;2023-04-07T08:29:31;99911.50;;;8.86;90.78
40730;BME280;26418;50.070;8.436;2023-04-07T08:31:56;99908.31;;;8.84;90.14
40730;BME280;26418;50.070;8.436;2023-04-07T08:34:22;99921.44;;;8.90;90.40
40730;BME280;26418;50.070;8.436;2023-04-07T08:36:47;99917.94;;;8.90;90.42
40730;BME280;26418;50.070;8.436;2023-04-07T08:39:13;99911.50;;;8.86;90.61
40730;BME280;26418;50.070;8.436;2023-04-07T08:41:40;99920.06;;;8.93;90.70
40730;BME280;26418;50.070;8.436;2023-04-07T08:44:07;99905.84;;;8.87;90.71
40730;BME280;26418;50.070;8.436;2023-04-07T08:46:34;99919.91;;;9.03;90.56
40730;BME280;26418;50.070;8.436;2023-04-07T08:49:06;99928.53;;;9.05;90.48
40730;BME280;26418;50.070;8.436;2023-04-07T08:51:32;99932.63;;;9.03;90.14
40730;BME280;26418;50.070;8.436;2023-04-07T08:54:11;99931.31;;;9.00;90.37
40730;BME280;26418;50.070;8.436;2023-04-07T08:56:37;99923.78;;;8.97;90.53
40730;BME280;26418;50.070;8.436;2023-04-07T08:59:06;99933.13;;;9.05;90.78
40730;BME280;26418;50.070;8.436;2023-04-07T09:01:33;99934.16;;;9.09;90.64
40730;BME280;26418;50.070;8.436;2023-04-07T09:04:01;99931.41;;;9.14;90.35
40730;BME280;26418;50.070;8.436;2023-04-07T09:06:29;99933.16;;;9.24;90.46
40730;BME280;26418;50.070;8.436;2023-04-07T09:08:56;99934.13;;;9.33;89.81
40730;BME280;26418;50.070;8.436;2023-04-07T09:11:22;99934.84;;;9.39;89.22
40730;BME280;26418;50.070;8.436;2023-04-07T09:13:48;99934.31;;;9.37;88.86
40730;BME280;26418;50.070;8.436;2023-04-07T09:16:14;99939.81;;;9.32;88.72
40730;BME280;26418;50.070;8.436;2023-04-07T09:18:39;99931.53;;;9.23;88.66
40730;BME280;26418;50.070;8.436;2023-04-07T09:21:06;99939.84;;;9.26;89.13
40730;BME280;26418;50.070;8.436;2023-04-07T09:23:37;99936.41;;;9.21;89.25
40730;BME280;26418;50.070;8.436;2023-04-07T09:26:25;99951.75;;;9.25;89.65
40730;BME280;26418;50.070;8.436;2023-04-07T09:28:56;99942.25;;;9.28;89.59
40730;BME280;26418;50.070;8.436;2023-04-07T09:31:23;99936.66;;;9.24;89.22
40730;BME280;26418;50.070;8.436;2023-04-07T09:33:55;99941.16;;;9.29;88.96
40730;BME280;26418;50.070;8.436;2023-04-07T09:36:23;99943.13;;;9.23;88.49
40730;BME280;26418;50.070;8.436;2023-04-07T09:38:49;99947.66;;;9.28;88.79
40730;BME280;26418;50.070;8.436;2023-04-07T09:41:15;99946.44;;;9.20;88.92
40730;BME280;26418;50.070;8.436;2023-04-07T09:43:44;99939.78;;;9.12;89.41
40730;BME280;26418;50.070;8.436;2023-04-07T09:46:11;99948.09;;;9.16;89.54
40730;BME280;26418;50.070;8.436;2023-04-07T09:48:37;99944.91;;;9.14;89.52
40730;BME280;26418;50.070;8.436;2023-04-07T09:51:08;99953.78;;;9.15;89.84
40730;BME280;26418;50.070;8.436;2023-04-07T09:53:41;99955.97;;;9.12;89.65
40730;BME280;26418;50.070;8.436;2023-04-07T09:56:10;99950.94;;;9.06;89.64
40730;BME280;26418;50.070;8.436;2023-04-07T09:58:38;99953.75;;;8.95;90.23
40730;BME280;26418;50.070;8.436;2023-04-07T10:01:06;99953.78;;;8.90;90.72
40730;BME280;26418;50.070;8.436;2023-04-07T10:03:33;99954.06;;;8.94;90.89
40730;BME280;26418;50.070;8.436;2023-04-07T10:05:59;99951.34;;;8.94;91.04
40730;BME280;26418;50.070;8.436;2023-04-07T10:08:25;99944.63;;;8.91;91.03
40730;BME280;26418;50.070;8.436;2023-04-07T10:10:51;99956.16;;;8.97;91.14
40730;BME280;26418;50.070;8.436;2023-04-07T10:13:18;99953.41;;;9.02;91.42
40730;BME280;26418;50.070;8.436;2023-04-07T10:15:43;99952.47;;;9.12;91.43
40730;BME280;26418;50.070;8.436;2023-04-07T10:18:09;99959.41;;;9.18;91.40
40730;BME280;26418;50.070;8.436;2023-04-07T10:20:38;99964.97;;;9.27;91.44
40730;BME280;26418;50.070;8.436;2023-04-07T10:23:16;99967.28;;;9.34;90.89
40730;BME280;26418;50.070;8.436;2023-04-07T10:25:43;99969.34;;;9.42;90.46
40730;BME280;26418;50.070;8.436;2023-04-07T10:28:11;99968.47;;;9.47;89.99
40730;BME280;26418;50.070;8.436;2023-04-07T10:30:38;99965.53;;;9.43;89.60
40730;BME280;26418;50.070;8.436;2023-04-07T10:33:04;99966.81;;;9.51;89.86
40730;BME280;26418;50.070;8.436;2023-04-07T10:36:01;99969.84;;;9.63;89.85
40730;BME280;26418;50.070;8.436;2023-04-07T10:38:27;99964.97;;;9.65;89.41
40730;BME280;26418;50.070;8.436;2023-04-07T10:40:53;99973.28;;;9.69;89.20
40730;BME280;26418;50.070;8.436;2023-04-07T10:43:39;99973.44;;;9.78;89.87
40730;BME280;26418;50.070;8.436;2023-04-07T10:46:06;99962.75;;;9.86;89.41
40730;BME280;26418;50.070;8.436;2023-04-07T10:48:31;99975.13;;;10.06;89.36
40730;BME280;26418;50.070;8.436;2023-04-07T10:53:29;99980.84;;;10.38;88.41
40730;BME280;26418;50.070;8.436;2023-04-07T10:55:56;99981.16;;;10.50;87.33
40730;BME280;26418;50.070;8.436;2023-04-07T10:58:26;99979.47;;;10.54;85.75
40730;BME280;26418;50.070;8.436;2023-04-07T11:03:22;99985.19;;;10.67;86.26
40730;BME280;26418;50.070;8.436;2023-04-07T11:05:48;99991.50;;;10.76;85.27
40730;BME280;26418;50.070;8.436;2023-04-07T11:08:13;99985.31;;;10.90;84.32
40730;BME280;26418;50.070;8.436;2023-04-07T11:10:39;99987.22;;;11.03;82.04
40730;BME280;26418;50.070;8.436;2023-04-07T11:13:11;99978.91;;;11.13;81.51
40730;BME280;26418;50.070;8.436;2023-04-07T11:15:36;99984.56;;;11.26;82.02
40730;BME280;26418;50.070;8.436;2023-04-07T11:20:58;99981.31;;;11.52;80.83
40730;BME280;26418;50.070;8.436;2023-04-07T11:23:23;99985.47;;;11.72;79.85
40730;BME280;26418;50.070;8.436;2023-04-07T11:25:52;99977.47;;;11.89;78.92
40730;BME280;26418;50.070;8.436;2023-04-07T11:28:18;99967.72;;;12.02;77.41
40730;BME280;26418;50.070;8.436;2023-04-07T11:30:45;99978.69;;;12.20;76.85
40730;BME280;26418;50.070;8.436;2023-04-07T11:33:15;99988.34;;;12.35;76.22
40730;BME280;26418;50.070;8.436;2023-04-07T11:35:50;99986.41;;;12.35;74.60
40730;BME280;26418;50.070;8.436;2023-04-07T11:38:16;99977.00;;;12.33;75.36
40730;BME280;26418;50.070;8.436;2023-04-07T11:40:42;99989.19;;;12.44;75.17
40730;BME280;26418;50.070;8.436;2023-04-07T11:43:24;99987.66;;;12.29;74.35
40730;BME280;26418;50.070;8.436;2023-04-07T11:46:13;99988.50;;;11.93;74.89
40730;BME280;26418;50.070;8.436;2023-04-07T11:48:40;99984.84;;;11.52;78.42
40730;BME280;26418;50.070;8.436;2023-04-07T11:51:14;99989.97;;;11.40;78.94
40730;BME280;26418;50.070;8.436;2023-04-07T11:53:40;99995.50;;;11.35;79.53
40730;BME280;26418;50.070;8.436;2023-04-07T11:56:07;99993.00;;;11.38;80.41
40730;BME280;26418;50.070;8.436;2023-04-07T11:58:37;99996.50;;;11.39;80.57
40730;BME280;26418;50.070;8.436;2023-04-07T12:01:04;99997.72;;;11.32;79.63
40730;BME280;26418;50.070;8.436;2023-04-07T12:03:36;99987.19;;;11.31;81.00
40730;BME280;26418;50.070;8.436;2023-04-07T12:06:03;99993.78;;;11.39;80.78
40730;BME280;26418;50.070;8.436;2023-04-07T12:11:03;100003.31;;;11.36;80.49
40730;BME280;26418;50.070;8.436;2023-04-07T12:13:29;100010.84;;;11.25;80.43
40730;BME280;26418;50.070;8.436;2023-04-07T12:15:55;100017.88;;;10.98;81.30
40730;BME280;26418;50.070;8.436;2023-04-07T12:18:22;100021.47;;;10.66;82.73
40730;BME280;26418;50.070;8.436;2023-04-07T12:20:49;100021.72;;;10.50;83.66
40730;BME280;26418;50.070;8.436;2023-04-07T12:23:14;100017.53;;;10.25;84.78
40730;BME280;26418;50.070;8.436;2023-04-07T12:25:40;100020.53;;;10.23;85.83
40730;BME280;26418;50.070;8.436;2023-04-07T12:28:06;100022.78;;;10.16;85.18
40730;BME280;26418;50.070;8.436;2023-04-07T12:30:31;100023.69;;;10.12;87.09
40730;BME280;26418;50.070;8.436;2023-04-07T12:32:57;100024.41;;;10.17;88.47
40730;BME280;26418;50.070;8.436;2023-04-07T12:35:22;100027.69;;;10.33;88.80
40730;BME280;26418;50.070;8.436;2023-04-07T12:37:48;100022.53;;;10.51;88.03
40730;BME280;26418;50.070;8.436;2023-04-07T12:40:13;100023.25;;;10.57;86.01
40730;BME280;26418;50.070;8.436;2023-04-07T12:42:40;100023.88;;;10.67;86.01
40730;BME280;26418;50.070;8.436;2023-04-07T12:45:05;100024.88;;;10.72;85.95
40730;BME280;26418;50.070;8.436;2023-04-07T12:47:31;100043.53;;;10.73;85.31
40730;BME280;26418;50.070;8.436;2023-04-07T12:49:58;100036.59;;;10.53;83.95
40730;BME280;26418;50.070;8.436;2023-04-07T12:52:23;100036.44;;;10.44;84.83
40730;BME280;26418;50.070;8.436;2023-04-07T12:54:48;100031.25;;;10.48;86.12
40730;BME280;26418;50.070;8.436;2023-04-07T12:57:14;100029.63;;;10.47;85.16
40730;BME280;26418;50.070;8.436;2023-04-07T12:59:40;100024.75;;;10.49;85.25
40730;BME280;26418;50.070;8.436;2023-04-07T13:02:05;100022.75;;;10.54;85.85
40730;BME280;26418;50.070;8.436;2023-04-07T13:04:31;100031.88;;;10.73;87.00
40730;BME280;26418;50.070;8.436;2023-04-07T13:06:56;100033.00;;;10.85;86.34
40730;BME280;26418;50.070;8.436;2023-04-07T13:09:21;100033.72;;;10.91;83.50
40730;BME280;26418;50.070;8.436;2023-04-07T13:11:47;100039.13;;;10.91;82.49
40730;BME280;26418;50.070;8.436;2023-04-07T13:14:12;100020.69;;;10.93;82.13
40730;BME280;26418;50.070;8.436;2023-04-07T13:16:37;100038.31;;;11.05;81.99
40730;BME280;26418;50.070;8.436;2023-04-07T13:19:03;100040.75;;;11.06;81.87
40730;BME280;26418;50.070;8.436;2023-04-07T13:21:28;100034.44;;;10.97;80.75
40730;BME280;26418;50.070;8.436;2023-04-07T13:23:54;100031.22;;;11.09;81.69